Time;durP1;ratioP1;P1;durP2;ratioP2;P2;SDS_P1;SDS_P2;PMS_P1;PMS_P2;Temp;Humidity;BMP_temperature;BMP_pressure;BME280_temperature;BME280_humidity;BME280_pressure;Samples;Min_cycle;Max_cycle;Signal;HPM_P1;HPM_P2
2022/02/15 00:01:53;;;;;;;;;;;;;;;6.68;66.27;97211.34;4968195;28;19941;-73
2022/02/15 00:04:22;;;;;;;;;;;;;;;6.85;65.78;97207.22;4987068;28;20301;-73
2022/02/15 00:06:50;;;;;;;;;;;;;;;7.01;65.14;97209.25;4998538;28;20348;-73
2022/02/15 00:09:18;;;;;;;;;;;;;;;6.69;66.06;97215.63;4995123;28;19965;-73
2022/02/15 00:11:46;;;;;;;;;;;;;;;6.75;65.93;97214.41;4995121;28;20574;-73
2022/02/15 00:14:14;;;;;;;;;;;;;;;6.45;67.34;97215.09;5000189;28;20428;-74
2022/02/15 00:16:44;;;;;;;;;;;;;;;6.57;66.92;97216.16;4995041;28;19934;-75
2022/02/15 00:19:12;;;;;;;;;;;;;;;6.73;66.53;97216.63;4973593;28;19992;-75
2022/02/15 00:21:39;;;;;;;;;;;;;;;6.57;66.93;97218.06;4991574;28;20438;-73
2022/02/15 00:24:08;;;;;;;;;;;;;;;6.74;66.93;97217.44;4980462;28;20379;-73
2022/02/15 00:26:36;;;;;;;;;;;;;;;6.79;66.91;97226.22;4987197;28;19961;-74
2022/02/15 00:29:06;;;;;;;;;;;;;;;6.47;67.99;97218.28;4966809;28;19934;-73
2022/02/15 00:31:34;;;;;;;;;;;;;;;6.44;68.53;97219.66;4990719;28;20474;-73
2022/02/15 00:34:03;;;;;;;;;;;;;;;6.44;68.26;97227.75;4992041;28;20079;-73
2022/02/15 00:36:31;;;;;;;;;;;;;;;6.15;69.99;97224.56;4990803;28;20012;-73
2022/02/15 00:38:59;;;;;;;;;;;;;;;6.26;70.14;97224.06;4985130;28;19926;-72
2022/02/15 00:41:28;;;;;;;;;;;;;;;6.34;68.93;97225.28;5000073;28;19930;-74
2022/02/15 00:43:56;;;;;;;;;;;;;;;6.48;68.43;97227.97;4986209;28;20024;-73
2022/02/15 00:46:24;;;;;;;;;;;;;;;6.43;68.65;97222.66;4979004;28;19925;-73
2022/02/15 00:48:53;;;;;;;;;;;;;;;6.18;70.02;97230.19;4986506;28;19926;-73
2022/02/15 00:51:23;;;;;;;;;;;;;;;6.13;70.14;97232.19;5001583;28;19926;-73
2022/02/15 00:53:51;;;;;;;;;;;;;;;6.00;70.29;97223.75;5007178;28;19930;-72
2022/02/15 00:56:21;;;;;;;;;;;;;;;6.00;70.69;97222.97;5001463;28;19944;-73
2022/02/15 00:58:49;;;;;;;;;;;;;;;6.12;70.35;97230.56;4997753;28;19936;-73
2022/02/15 01:01:18;;;;;;;;;;;;;;;6.10;69.97;97232.75;4996754;28;19935;-73
2022/02/15 01:03:46;;;;;;;;;;;;;;;6.27;69.07;97233.75;4991015;28;19926;-73
2022/02/15 01:06:14;;;;;;;;;;;;;;;6.31;68.72;97233.97;4985290;28;20263;-72
2022/02/15 01:08:45;;;;;;;;;;;;;;;6.43;69.10;97233.47;4982887;28;19980;-73
2022/02/15 01:14:06;;;;;;;;;;;;;;;6.01;70.68;97240.72;4999467;28;19980;-73
2022/02/15 01:16:35;;;;;;;;;;;;;;;6.03;71.23;97236.66;4977667;28;19963;-73
2022/02/15 01:19:03;;;;;;;;;;;;;;;6.02;71.07;97236.97;5002830;28;19925;-73
2022/02/15 01:21:30;;;;;;;;;;;;;;;6.03;70.28;97236.66;4980823;28;20461;-73
2022/02/15 01:24:00;;;;;;;;;;;;;;;6.08;70.95;97235.75;4985785;28;19979;-74
2022/02/15 01:26:28;;;;;;;;;;;;;;;6.23;70.26;97232.78;4988887;28;19929;-73
2022/02/15 01:28:57;;;;;;;;;;;;;;;6.58;69.21;97225.06;5001754;28;19925;-73
2022/02/15 01:31:25;;;;;;;;;;;;;;;6.61;69.08;97229.06;4982057;28;20049;-73
2022/02/15 01:33:53;;;;;;;;;;;;;;;6.67;68.86;97234.06;4984926;28;20395;-73
2022/02/15 01:36:21;;;;;;;;;;;;;;;6.28;70.28;97231.84;4997290;28;19937;-73
2022/02/15 01:38:49;;;;;;;;;;;;;;;6.27;70.57;97231.06;4985262;28;19936;-73
2022/02/15 01:41:18;;;;;;;;;;;;;;;6.49;69.98;97226.84;4991082;28;20028;-73
2022/02/15 01:43:46;;;;;;;;;;;;;;;6.34;70.22;97232.56;4989860;28;20352;-73
2022/02/15 01:46:16;;;;;;;;;;;;;;;6.33;70.63;97249.84;4986679;28;19926;-73
2022/02/15 01:48:47;;;;;;;;;;;;;;;6.18;71.27;97246.38;5004778;28;19936;-72
2022/02/15 01:51:19;;;;;;;;;;;;;;;6.18;71.43;97246.38;4990959;28;19925;-73
2022/02/15 01:53:47;;;;;;;;;;;;;;;6.44;70.29;97240.44;4990600;28;20028;-73
2022/02/15 01:56:16;;;;;;;;;;;;;;;6.37;70.84;97246.25;5007344;28;19968;-73
2022/02/15 01:58:47;;;;;;;;;;;;;;;6.26;70.98;97247.56;4987606;28;19941;-73
2022/02/15 02:01:19;;;;;;;;;;;;;;;6.13;72.13;97245.66;4981491;28;19997;-73
2022/02/15 02:04:03;;;;;;;;;;;;;;;6.09;72.23;97245.44;4986270;28;20012;-73
2022/02/15 02:06:31;;;;;;;;;;;;;;;6.11;71.94;97239.75;4993631;28;19926;-73
2022/02/15 02:08:59;;;;;;;;;;;;;;;6.33;71.17;97236.34;4979493;28;19940;-73
2022/02/15 02:11:29;;;;;;;;;;;;;;;6.14;71.92;97231.88;4990095;28;19980;-73
2022/02/15 02:14:07;;;;;;;;;;;;;;;6.02;72.21;97231.56;4987016;28;19932;-73
2022/02/15 02:16:45;;;;;;;;;;;;;;;6.00;72.65;97221.06;4980289;28;19984;-73
2022/02/15 02:19:17;;;;;;;;;;;;;;;5.96;72.44;97225.44;5007981;28;19968;-73
2022/02/15 02:21:47;;;;;;;;;;;;;;;5.86;73.32;97224.78;4982039;28;19930;-73
2022/02/15 02:24:17;;;;;;;;;;;;;;;5.91;72.98;97225.56;4984358;28;19926;-73
2022/02/15 02:26:48;;;;;;;;;;;;;;;5.94;72.71;97226.84;4982841;28;19926;-73
2022/02/15 02:29:16;;;;;;;;;;;;;;;5.86;73.19;97230.19;4986272;28;19926;-73
2022/02/15 02:31:46;;;;;;;;;;;;;;;5.96;72.84;97238.94;4997444;28;19926;-73
2022/02/15 02:34:18;;;;;;;;;;;;;;;6.20;71.35;97227.97;4970252;28;19932;-73
2022/02/15 02:36:49;;;;;;;;;;;;;;;6.15;71.87;97243.47;4999666;28;19952;-73
2022/02/15 02:39:21;;;;;;;;;;;;;;;6.41;71.17;97241.06;4999005;28;19933;-74
2022/02/15 02:41:52;;;;;;;;;;;;;;;6.12;71.84;97235.94;4992047;28;19933;-73
2022/02/15 02:44:21;;;;;;;;;;;;;;;6.35;70.72;97237.66;4985326;28;19940;-73
2022/02/15 02:46:50;;;;;;;;;;;;;;;6.39;70.23;97241.38;4969939;28;19934;-73
2022/02/15 02:49:22;;;;;;;;;;;;;;;6.43;70.42;97250.44;4966638;28;20284;-73
2022/02/15 02:51:52;;;;;;;;;;;;;;;6.35;70.14;97243.06;4975123;28;20304;-73
2022/02/15 02:54:20;;;;;;;;;;;;;;;6.45;70.00;97248.25;4974063;28;20048;-73
2022/02/15 02:56:59;;;;;;;;;;;;;;;6.30;70.94;97249.34;4968512;28;19996;-73
2022/02/15 02:59:29;;;;;;;;;;;;;;;6.04;71.82;97251.72;4964604;28;19933;-73
2022/02/15 03:02:02;;;;;;;;;;;;;;;5.90;72.66;97252.78;4968047;28;20289;-73
2022/02/15 03:04:32;;;;;;;;;;;;;;;5.91;72.88;97260.59;4969780;28;19926;-73
2022/02/15 03:07:01;;;;;;;;;;;;;;;6.00;72.83;97260.72;4985246;28;19964;-73
2022/02/15 03:09:29;;;;;;;;;;;;;;;5.89;73.01;97272.75;4961583;28;20357;-73
2022/02/15 03:11:58;;;;;;;;;;;;;;;5.91;73.39;97275.94;4983044;28;19930;-73
2022/02/15 03:14:26;;;;;;;;;;;;;;;6.11;72.12;97280.19;4981779;28;19925;-73
2022/02/15 03:16:57;;;;;;;;;;;;;;;6.40;71.06;97282.66;4976904;28;20013;-72
2022/02/15 03:19:28;;;;;;;;;;;;;;;6.32;71.55;97278.72;4994100;28;19926;-73
2022/02/15 03:21:58;;;;;;;;;;;;;;;6.14;72.25;97275.03;5004007;28;19925;-73
2022/02/15 03:24:28;;;;;;;;;;;;;;;6.38;71.29;97285.63;5002997;28;19926;-74
2022/02/15 03:26:58;;;;;;;;;;;;;;;6.29;71.66;97282.84;4981054;28;20381;-72
2022/02/15 03:29:28;;;;;;;;;;;;;;;6.55;71.27;97277.75;4998151;28;19930;-73
2022/02/15 03:31:56;;;;;;;;;;;;;;;6.17;72.75;97282.50;4985315;28;20311;-73
2022/02/15 03:34:26;;;;;;;;;;;;;;;6.25;72.50;97287.22;5002823;28;19953;-73
2022/02/15 03:36:54;;;;;;;;;;;;;;;6.56;72.01;97292.84;4994201;28;19940;-73
2022/02/15 03:39:21;;;;;;;;;;;;;;;6.53;71.64;97290.72;5008014;28;19936;-75
2022/02/15 03:44:44;;;;;;;;;;;;;;;6.27;73.04;97309.28;4983650;28;19925;-73
2022/02/15 03:47:20;;;;;;;;;;;;;;;6.24;73.25;97312.59;4986010;28;20397;-73
2022/02/15 03:50:13;;;;;;;;;;;;;;;6.17;73.42;97314.06;5006948;28;19933;-73
2022/02/15 03:52:42;;;;;;;;;;;;;;;6.14;73.90;97318.16;4995310;28;20686;-72
2022/02/15 03:55:11;;;;;;;;;;;;;;;6.24;73.32;97312.59;4991538;28;19941;-73
2022/02/15 03:57:41;;;;;;;;;;;;;;;6.32;73.29;97307.59;4988055;28;20376;-73
2022/02/15 04:00:11;;;;;;;;;;;;;;;6.12;73.80;97317.66;4983776;28;20333;-73
2022/02/15 04:02:44;;;;;;;;;;;;;;;6.19;74.26;97318.09;4972410;28;19965;-73
2022/02/15 04:05:12;;;;;;;;;;;;;;;6.19;73.95;97323.47;5005970;28;19933;-73
2022/02/15 04:07:40;;;;;;;;;;;;;;;6.09;74.16;97330.94;4989057;28;20458;-73
2022/02/15 04:10:09;;;;;;;;;;;;;;;6.27;74.15;97327.38;4990953;28;20024;-73
2022/02/15 04:12:44;;;;;;;;;;;;;;;6.17;73.89;97333.75;4997180;28;19933;-73
2022/02/15 04:15:12;;;;;;;;;;;;;;;6.22;73.15;97336.34;4994727;28;19926;-73
2022/02/15 04:17:46;;;;;;;;;;;;;;;6.24;73.72;97334.19;5008077;28;19976;-73
2022/02/15 04:20:14;;;;;;;;;;;;;;;6.13;74.17;97342.75;4993196;28;19949;-73
2022/02/15 04:22:43;;;;;;;;;;;;;;;6.14;74.25;97342.44;4971359;28;19940;-73
2022/02/15 04:25:12;;;;;;;;;;;;;;;6.15;74.25;97338.66;4967307;28;19944;-72
2022/02/15 04:27:42;;;;;;;;;;;;;;;6.33;73.32;97333.47;4989560;28;20301;-72
2022/02/15 04:30:12;;;;;;;;;;;;;;;6.25;74.02;97340.38;4998192;28;19953;-73
2022/02/15 04:32:47;;;;;;;;;;;;;;;6.36;73.77;97336.38;4987423;28;19933;-73
2022/02/15 04:35:16;;;;;;;;;;;;;;;6.25;74.33;97349.25;4967023;28;20083;-73
2022/02/15 04:37:48;;;;;;;;;;;;;;;6.45;73.36;97333.81;4986815;28;20254;-73
2022/02/15 04:40:17;;;;;;;;;;;;;;;6.30;74.07;97346.47;5001765;28;19940;-73
2022/02/15 04:42:46;;;;;;;;;;;;;;;6.36;73.75;97339.09;4971760;28;19929;-73
2022/02/15 04:45:16;;;;;;;;;;;;;;;6.44;73.49;97335.69;4996831;28;20398;-74
2022/02/15 04:47:50;;;;;;;;;;;;;;;6.38;73.28;97338.78;4986215;28;20396;-74
2022/02/15 04:50:20;;;;;;;;;;;;;;;6.45;73.00;97333.81;4988699;28;19926;-73
2022/02/15 04:52:51;;;;;;;;;;;;;;;6.49;72.87;97342.88;4984629;28;19937;-73
2022/02/15 04:55:22;;;;;;;;;;;;;;;6.41;73.04;97335.50;4982027;28;19933;-73
2022/02/15 04:57:57;;;;;;;;;;;;;;;6.46;72.32;97340.81;4986164;28;19926;-73
2022/02/15 05:00:27;;;;;;;;;;;;;;;6.59;72.36;97337.31;5005158;28;20053;-73
2022/02/15 05:03:20;;;;;;;;;;;;;;;6.60;71.52;97335.41;5017568;28;19926;-72
2022/02/15 05:05:55;;;;;;;;;;;;;;;6.32;72.78;97345.38;5023490;28;19925;-73
2022/02/15 05:08:24;;;;;;;;;;;;;;;6.12;73.61;97344.63;5015481;28;19925;-73
2022/02/15 05:10:59;;;;;;;;;;;;;;;6.00;74.55;97347.78;5035646;28;20323;-73
2022/02/15 05:13:35;;;;;;;;;;;;;;;5.95;74.96;97352.47;5015601;28;20027;-73
2022/02/15 05:16:17;;;;;;;;;;;;;;;5.88;75.30;97352.81;5019398;28;19926;-73
2022/02/15 05:18:51;;;;;;;;;;;;;;;5.87;75.61;97355.81;5030065;28;19933;-73
2022/02/15 05:21:24;;;;;;;;;;;;;;;5.92;75.17;97361.97;5032741;28;19948;-72
2022/02/15 05:23:56;;;;;;;;;;;;;;;6.36;73.60;97362.56;5031858;28;19933;-72
2022/02/15 05:26:36;;;;;;;;;;;;;;;6.16;74.11;97364.50;5018795;28;19991;-73
2022/02/15 05:29:06;;;;;;;;;;;;;;;6.14;74.54;97366.72;5022688;28;19938;-72
2022/02/15 05:31:47;;;;;;;;;;;;;;;6.21;74.17;97372.53;5017429;28;19948;-80
2022/02/15 05:34:15;;;;;;;;;;;;;;;6.40;73.90;97377.06;5022479;28;19925;-73
2022/02/15 05:36:47;;;;;;;;;;;;;;;6.35;73.68;97377.16;5025795;28;19968;-73
2022/02/15 05:39:16;;;;;;;;;;;;;;;6.45;73.36;97377.00;5022771;28;19976;-73
2022/02/15 05:41:54;;;;;;;;;;;;;;;6.26;73.91;97382.44;5006451;28;20239;-73
2022/02/15 05:44:22;;;;;;;;;;;;;;;6.19;74.13;97376.63;5005094;28;19925;-73
2022/02/15 05:46:52;;;;;;;;;;;;;;;6.11;73.87;97379.97;5016093;28;20028;-73
2022/02/15 05:49:20;;;;;;;;;;;;;;;6.24;73.75;97382.72;5005738;28;19978;-71
2022/02/15 05:51:57;;;;;;;;;;;;;;;6.32;73.11;97385.84;5020168;28;20453;-71
2022/02/15 05:54:30;;;;;;;;;;;;;;;6.34;73.20;97389.03;5036418;28;19925;-71
2022/02/15 05:57:06;;;;;;;;;;;;;;;6.42;72.58;97380.25;5006072;28;19925;-71
2022/02/15 05:59:48;;;;;;;;;;;;;;;6.25;73.46;97384.31;5021136;28;19929;-78
2022/02/15 06:02:47;;;;;;;;;;;;;;;6.32;73.27;97389.34;5024428;28;19929;-84
2022/02/15 06:05:34;;;;;;;;;;;;;;;6.17;73.44;97382.28;5011194;28;20020;-75
2022/02/15 06:08:30;;;;;;;;;;;;;;;6.17;73.76;97387.69;5026587;28;19993;-71
2022/02/15 06:11:03;;;;;;;;;;;;;;;6.11;73.51;97396.16;5031396;28;19980;-73
2022/02/15 06:13:39;;;;;;;;;;;;;;;6.25;73.57;97403.22;5035684;28;19968;-71
2022/02/15 06:16:13;;;;;;;;;;;;;;;6.10;73.53;97408.84;5013221;28;19925;-71
2022/02/15 06:18:55;;;;;;;;;;;;;;;6.15;73.37;97408.78;5018025;28;20364;-72
2022/02/15 06:21:27;;;;;;;;;;;;;;;6.17;73.32;97409.25;5016146;28;20040;-71
2022/02/15 06:23:58;;;;;;;;;;;;;;;6.08;73.77;97415.66;5027186;28;19926;-72
2022/02/15 06:26:45;;;;;;;;;;;;;;;6.12;73.35;97417.44;5014138;28;19987;-71
2022/02/15 06:29:25;;;;;;;;;;;;;;;6.10;73.63;97422.34;5021524;28;20068;-74
2022/02/15 06:34:54;;;;;;;;;;;;;;;6.08;73.45;97429.94;5024686;28;19983;-74
2022/02/15 06:37:23;;;;;;;;;;;;;;;6.00;74.06;97427.88;5039195;28;19925;-74
2022/02/15 06:39:53;;;;;;;;;;;;;;;6.03;73.88;97440.78;5037242;28;19933;-75
2022/02/15 06:42:24;;;;;;;;;;;;;;;6.09;73.81;97434.22;5041747;28;19932;-74
2022/02/15 06:44:53;;;;;;;;;;;;;;;6.11;73.61;97436.63;5023760;28;20013;-74
2022/02/15 06:47:31;;;;;;;;;;;;;;;6.13;73.96;97435.25;5024849;28;19925;-74
2022/02/15 06:50:07;;;;;;;;;;;;;;;6.10;73.97;97433.13;5015311;28;19951;-74
2022/02/15 06:52:47;;;;;;;;;;;;;;;6.09;74.12;97439.63;5023774;28;20043;-75
2022/02/15 06:55:54;;;;;;;;;;;;;;;6.27;72.92;97435.28;4992164;28;19941;-74
2022/02/15 06:58:28;;;;;;;;;;;;;;;6.32;72.64;97437.09;4991941;28;19968;-75
2022/02/15 07:00:57;;;;;;;;;;;;;;;6.42;72.95;97448.53;4983216;28;20384;-77
2022/02/15 07:03:27;;;;;;;;;;;;;;;6.41;72.88;97446.13;4975333;28;19933;-75
2022/02/15 07:06:04;;;;;;;;;;;;;;;6.50;72.55;97452.47;4987976;28;19937;-75
2022/02/15 07:08:36;;;;;;;;;;;;;;;6.61;72.28;97451.19;5011698;28;19926;-75
2022/02/15 07:11:31;;;;;;;;;;;;;;;6.50;72.57;97455.16;4994683;28;19933;-75
2022/02/15 07:13:59;;;;;;;;;;;;;;;6.54;72.21;97464.25;4988971;28;20010;-74
2022/02/15 07:16:27;;;;;;;;;;;;;;;6.47;73.24;97456.53;4985473;28;20060;-74
2022/02/15 07:18:58;;;;;;;;;;;;;;;6.57;72.34;97455.56;4980018;28;19926;-77
2022/02/15 07:21:50;;;;;;;;;;;;;;;6.46;72.98;97464.94;5000249;28;20047;-75
2022/02/15 07:24:42;;;;;;;;;;;;;;;6.45;73.90;97471.44;4997193;28;19927;-75
2022/02/15 07:27:33;;;;;;;;;;;;;;;6.69;72.46;97463.97;4990221;28;19936;-75
2022/02/15 07:30:08;;;;;;;;;;;;;;;6.58;73.13;97473.34;4977073;28;19979;-75
2022/02/15 07:33:11;;;;;;;;;;;;;;;6.71;72.50;97478.00;4991420;28;19932;-76
2022/02/15 07:35:39;;;;;;;;;;;;;;;6.78;72.57;97478.41;5005119;28;20067;-75
2022/02/15 07:38:09;;;;;;;;;;;;;;;6.70;71.95;97479.06;5004055;28;19936;-74
2022/02/15 07:40:36;;;;;;;;;;;;;;;6.87;71.76;97485.81;4990062;28;19929;-75
2022/02/15 07:43:05;;;;;;;;;;;;;;;6.73;72.47;97483.91;5005279;28;19979;-74
2022/02/15 07:45:42;;;;;;;;;;;;;;;6.78;72.55;97491.09;5001450;28;20380;-75
2022/02/15 07:48:11;;;;;;;;;;;;;;;6.78;72.45;97491.91;4999735;28;19926;-75
2022/02/15 07:50:41;;;;;;;;;;;;;;;6.91;72.43;97490.31;4987936;28;19932;-74
2022/02/15 07:53:11;;;;;;;;;;;;;;;7.17;71.14;97497.97;5005280;28;19925;-74
2022/02/15 07:55:44;;;;;;;;;;;;;;;7.05;71.73;97501.97;5027199;28;19925;-76
2022/02/15 07:58:13;;;;;;;;;;;;;;;6.93;71.66;97498.16;5028304;28;19956;-76
2022/02/15 08:00:41;;;;;;;;;;;;;;;6.85;72.01;97502.31;5023149;28;19925;-75
2022/02/15 08:03:10;;;;;;;;;;;;;;;6.87;72.31;97513.63;5026185;28;19953;-75
2022/02/15 08:05:41;;;;;;;;;;;;;;;7.21;70.89;97518.69;5028070;28;19925;-75
2022/02/15 08:08:17;;;;;;;;;;;;;;;6.95;71.75;97514.84;5032775;28;19925;-75
2022/02/15 08:10:47;;;;;;;;;;;;;;;6.98;71.96;97511.56;5035221;28;19961;-74
2022/02/15 08:13:18;;;;;;;;;;;;;;;6.92;71.95;97510.81;5025415;28;20002;-75
2022/02/15 08:15:48;;;;;;;;;;;;;;;6.86;72.00;97516.59;5021177;28;19937;-75
2022/02/15 08:18:16;;;;;;;;;;;;;;;6.80;71.92;97518.59;5027863;28;19943;-74
2022/02/15 08:20:44;;;;;;;;;;;;;;;6.75;72.00;97522.19;5028996;28;19944;-75
2022/02/15 08:23:12;;;;;;;;;;;;;;;6.83;72.42;97521.53;5032121;28;19952;-74
2022/02/15 08:26:13;;;;;;;;;;;;;;;6.78;72.13;97526.22;5021089;28;20277;-74
2022/02/15 08:28:44;;;;;;;;;;;;;;;6.97;71.46;97534.25;5025372;28;19925;-74
2022/02/15 08:31:12;;;;;;;;;;;;;;;6.84;71.42;97533.13;5018749;28;19948;-75
2022/02/15 08:33:40;;;;;;;;;;;;;;;6.91;72.01;97535.44;5027649;28;20008;-74
2022/02/15 08:36:13;;;;;;;;;;;;;;;6.95;71.98;97552.66;5029454;28;20635;-74
2022/02/15 08:38:44;;;;;;;;;;;;;;;7.01;71.32;97546.84;5023722;28;19933;-75
2022/02/15 08:41:14;;;;;;;;;;;;;;;7.02;71.22;97550.34;5022879;28;19929;-74
2022/02/15 08:43:46;;;;;;;;;;;;;;;6.82;71.86;97551.53;5040574;28;19925;-74
2022/02/15 08:46:15;;;;;;;;;;;;;;;6.92;71.83;97561.31;5019709;28;19935;-75
2022/02/15 08:48:45;;;;;;;;;;;;;;;6.98;71.32;97560.16;5023586;28;19967;-74
2022/02/15 08:51:14;;;;;;;;;;;;;;;7.04;71.28;97564.38;5025959;28;19952;-75
2022/02/15 08:53:45;;;;;;;;;;;;;;;7.07;71.58;97566.47;5008007;28;19940;-75
2022/02/15 08:56:13;;;;;;;;;;;;;;;7.15;70.76;97575.81;5029049;28;19925;-73
2022/02/15 08:58:42;;;;;;;;;;;;;;;7.25;70.43;97568.31;5026818;28;19925;-71
2022/02/15 09:01:14;;;;;;;;;;;;;;;7.10;70.22;97568.59;5038141;28;19965;-72
2022/02/15 09:03:44;;;;;;;;;;;;;;;7.23;70.29;97575.91;5007064;28;19932;-72
2022/02/15 09:06:15;;;;;;;;;;;;;;;7.27;70.29;97568.03;5025249;28;20335;-76
2022/02/15 09:08:44;;;;;;;;;;;;;;;7.35;70.76;97567.34;5009483;28;19936;-76
2022/02/15 09:11:17;;;;;;;;;;;;;;;7.44;70.58;97564.75;5024868;28;20007;-74
2022/02/15 09:13:47;;;;;;;;;;;;;;;7.56;69.76;97568.56;5023741;28;19928;-74
2022/02/15 09:16:17;;;;;;;;;;;;;;;7.73;68.64;97569.88;5018940;28;19929;-75
2022/02/15 09:18:47;;;;;;;;;;;;;;;7.64;68.95;97572.47;5025475;28;19924;-75
2022/02/15 09:21:16;;;;;;;;;;;;;;;7.64;68.87;97574.38;5019801;28;19933;-74
2022/02/15 09:23:44;;;;;;;;;;;;;;;7.81;68.31;97579.97;5022599;28;19925;-73
2022/02/15 09:26:14;;;;;;;;;;;;;;;7.72;67.95;97573.66;5023685;28;19925;-75
2022/02/15 09:28:43;;;;;;;;;;;;;;;7.47;68.53;97580.38;5027105;28;19925;-76
2022/02/15 09:31:14;;;;;;;;;;;;;;;7.59;67.82;97577.97;5017254;28;20358;-73
2022/02/15 09:33:44;;;;;;;;;;;;;;;7.24;68.32;97582.91;5024189;28;20028;-77
2022/02/15 09:36:24;;;;;;;;;;;;;;;7.32;70.14;97574.13;5023064;28;19933;-75
2022/02/15 09:38:53;;;;;;;;;;;;;;;7.62;69.21;97574.69;5025548;28;19986;-75
2022/02/15 09:44:40;;;;;;;;;;;;;;;7.63;70.74;97584.38;5021009;28;20227;-75
2022/02/15 09:47:11;;;;;;;;;;;;;;;7.62;69.91;97585.50;5016841;28;19932;-75
2022/02/15 09:49:49;;;;;;;;;;;;;;;7.65;69.59;97582.16;5023219;28;19933;-75
2022/02/15 09:52:19;;;;;;;;;;;;;;;7.64;68.93;97590.59;5017890;28;19987;-75
2022/02/15 09:54:50;;;;;;;;;;;;;;;7.74;68.40;97587.69;5022521;28;19926;-77
2022/02/15 09:58:08;;;;;;;;;;;;;;;7.87;69.23;97592.28;4946189;27;2333916;-75
2022/02/15 10:00:38;;;;;;;;;;;;;;;8.46;67.92;97595.13;5036956;28;19925;-75
2022/02/15 10:03:09;;;;;;;;;;;;;;;8.53;66.91;97590.13;5043571;28;19933;-88
2022/02/15 10:05:58;;;;;;;;;;;;;;;8.44;66.55;97592.75;5044075;28;19943;-77
2022/02/15 10:08:47;;;;;;;;;;;;;;;8.47;67.48;97591.31;5041542;28;19926;-73
2022/02/15 10:11:17;;;;;;;;;;;;;;;8.33;66.91;97597.53;5036701;28;19936;-74
2022/02/15 10:13:47;;;;;;;;;;;;;;;8.47;67.02;97600.25;5042073;28;19925;-74
2022/02/15 10:16:16;;;;;;;;;;;;;;;8.53;65.87;97593.63;5047695;28;20395;-75
2022/02/15 10:18:45;;;;;;;;;;;;;;;8.40;66.38;97603.38;5043369;28;19925;-75
2022/02/15 10:21:16;;;;;;;;;;;;;;;8.26;67.58;97591.75;5041926;28;19933;-77
2022/02/15 10:24:24;;;;;;;;;;;;;;;8.65;66.42;97606.63;5042365;28;19957;-76
2022/02/15 10:27:01;;;;;;;;;;;;;;;8.29;66.34;97606.56;5059858;28;19998;-75
2022/02/15 10:29:32;;;;;;;;;;;;;;;8.44;66.63;97619.00;5041054;28;20028;-75
2022/02/15 10:32:01;;;;;;;;;;;;;;;8.01;66.10;97622.03;5035562;28;19929;-75
2022/02/15 10:34:30;;;;;;;;;;;;;;;7.81;65.93;97615.91;5044979;28;19983;-76
2022/02/15 10:37:01;;;;;;;;;;;;;;;7.72;66.49;97614.22;5039947;28;19939;-76
2022/02/15 10:39:37;;;;;;;;;;;;;;;7.75;66.84;97617.13;5021629;28;19933;-75
2022/02/15 10:42:09;;;;;;;;;;;;;;;7.85;65.91;97605.31;5038125;28;20027;-76
2022/02/15 10:44:57;;;;;;;;;;;;;;;7.66;66.35;97600.00;5027742;28;19917;-75
2022/02/15 10:47:31;;;;;;;;;;;;;;;7.82;66.90;97598.59;5055501;28;19925;-73
2022/02/15 10:50:02;;;;;;;;;;;;;;;7.85;66.73;97599.91;5064162;28;19925;-74
2022/02/15 10:52:30;;;;;;;;;;;;;;;7.96;67.06;97592.38;5059784;28;19924;-73
2022/02/15 10:54:58;;;;;;;;;;;;;;;8.02;66.60;97596.59;5063919;28;19928;-74
2022/02/15 10:57:26;;;;;;;;;;;;;;;8.00;66.35;97602.31;5046938;28;19933;-75
2022/02/15 10:59:57;;;;;;;;;;;;;;;8.04;65.92;97610.59;5042059;28;19952;-76
2022/02/15 11:02:35;;;;;;;;;;;;;;;8.08;66.13;97611.59;5043657;28;20367;-75
2022/02/15 11:05:03;;;;;;;;;;;;;;;8.22;66.12;97607.00;5057903;28;19925;-75
2022/02/15 11:07:32;;;;;;;;;;;;;;;8.45;64.86;97609.78;5039797;28;19934;-75
2022/02/15 11:10:14;;;;;;;;;;;;;;;8.62;63.91;97612.63;5013700;28;20326;-75
2022/02/15 11:12:44;;;;;;;;;;;;;;;8.51;64.46;97609.34;5029171;28;19972;-74
2022/02/15 11:15:17;;;;;;;;;;;;;;;8.38;65.32;97604.78;5026111;28;20015;-74
2022/02/15 11:17:46;;;;;;;;;;;;;;;8.39;64.46;97607.19;5009395;28;19925;-74
2022/02/15 11:20:16;;;;;;;;;;;;;;;8.52;64.78;97607.44;5027988;28;19948;-74
2022/02/15 11:22:44;;;;;;;;;;;;;;;8.67;63.89;97612.53;5011120;28;19925;-75
2022/02/15 11:25:12;;;;;;;;;;;;;;;8.67;63.07;97612.53;5030029;28;19952;-75
2022/02/15 11:27:40;;;;;;;;;;;;;;;8.86;63.72;97623.19;5031528;28;20363;-75
2022/02/15 11:30:15;;;;;;;;;;;;;;;9.02;63.21;97618.22;5028267;28;19929;-75
2022/02/15 11:32:43;;;;;;;;;;;;;;;9.20;62.64;97619.94;5007129;28;20247;-75
2022/02/15 11:35:11;;;;;;;;;;;;;;;9.13;61.59;97614.16;5013929;28;19989;-74
2022/02/15 11:37:39;;;;;;;;;;;;;;;8.92;62.50;97609.22;5035317;28;19929;-74
2022/02/15 11:40:08;;;;;;;;;;;;;;;9.19;62.51;97610.19;5023952;28;20294;-74
2022/02/15 11:42:46;;;;;;;;;;;;;;;9.11;62.03;97619.88;5029144;28;19925;-74
2022/02/15 11:45:25;;;;;;;;;;;;;;;9.32;60.36;97622.06;5028273;28;19975;-74
2022/02/15 11:47:54;;;;;;;;;;;;;;;9.41;59.96;97618.31;5027640;28;19964;-74
2022/02/15 11:50:25;;;;;;;;;;;;;;;8.91;61.64;97623.88;5026240;28;19941;-73
2022/02/15 11:52:53;;;;;;;;;;;;;;;9.05;61.68;97625.72;5019381;28;19925;-74
2022/02/15 11:55:21;;;;;;;;;;;;;;;8.77;62.62;97625.81;5022187;28;19929;-74
2022/02/15 11:57:51;;;;;;;;;;;;;;;8.60;62.09;97625.69;5021953;28;20448;-73
2022/02/15 12:00:21;;;;;;;;;;;;;;;8.65;61.78;97625.56;5022756;28;20056;-74
2022/02/15 12:02:53;;;;;;;;;;;;;;;8.31;61.35;97626.84;5028926;28;19925;-73
2022/02/15 12:05:24;;;;;;;;;;;;;;;8.47;61.41;97626.50;5024897;28;20378;-73
2022/02/15 12:07:53;;;;;;;;;;;;;;;8.35;60.48;97622.41;5027187;28;20016;-74
2022/02/15 12:10:24;;;;;;;;;;;;;;;8.39;60.33;97623.44;5023956;28;19926;-74
2022/02/15 12:12:53;;;;;;;;;;;;;;;8.51;60.17;97622.09;5024980;28;19940;-74
2022/02/15 12:15:24;;;;;;;;;;;;;;;8.62;60.76;97616.13;5005146;28;19940;-74
2022/02/15 12:17:55;;;;;;;;;;;;;;;8.26;61.66;97610.69;5027161;28;19977;-74
2022/02/15 12:20:23;;;;;;;;;;;;;;;8.38;62.00;97619.13;5025981;28;19933;-74
2022/02/15 12:22:53;;;;;;;;;;;;;;;8.16;61.54;97618.22;4999628;28;20029;-74
2022/02/15 12:25:50;;;;;;;;;;;;;;;8.14;62.42;97613.09;5021649;28;20361;-74
2022/02/15 12:28:22;;;;;;;;;;;;;;;8.14;61.74;97615.81;5026912;28;19976;-74
2022/02/15 12:30:52;;;;;;;;;;;;;;;8.09;61.06;97613.19;5023067;28;19929;-74
2022/02/15 12:33:21;;;;;;;;;;;;;;;7.93;62.15;97625.44;5026442;28;19936;-74
2022/02/15 12:35:53;;;;;;;;;;;;;;;7.96;62.37;97631.06;5022486;28;20056;-74
2022/02/15 12:38:21;;;;;;;;;;;;;;;7.74;62.08;97618.22;5023350;28;19926;-74
2022/02/15 12:40:49;;;;;;;;;;;;;;;7.74;62.06;97618.22;5024711;28;19925;-74
2022/02/15 12:43:18;;;;;;;;;;;;;;;7.82;62.80;97622.94;5016265;28;19926;-74
2022/02/15 12:45:46;;;;;;;;;;;;;;;7.93;62.46;97614.63;5014511;28;19933;-74
2022/02/15 12:48:16;;;;;;;;;;;;;;;7.83;62.42;97621.84;5025401;28;19937;-74
2022/02/15 12:50:45;;;;;;;;;;;;;;;7.62;63.54;97631.44;5024346;28;20059;-74
2022/02/15 12:53:14;;;;;;;;;;;;;;;7.66;63.10;97627.03;5036174;28;20449;-74
2022/02/15 12:56:14;;;;;;;;;;;;;;;7.74;63.73;97618.22;5029708;28;21516;-74
2022/02/15 12:58:47;;;;;;;;;;;;;;;7.76;64.39;97626.84;5046171;28;19925;-73
2022/02/15 13:01:16;;;;;;;;;;;;;;;7.82;64.21;97622.13;5035233;28;19960;-74
2022/02/15 13:03:46;;;;;;;;;;;;;;;7.73;64.85;97621.25;5028915;28;20025;-75
2022/02/15 13:06:15;;;;;;;;;;;;;;;7.88;64.56;97624.47;5012574;28;20007;-74
2022/02/15 13:08:43;;;;;;;;;;;;;;;8.06;64.59;97621.94;5049261;28;19971;-74
2022/02/15 13:14:10;;;;;;;;;;;;;;;8.01;63.30;97627.44;5030800;28;19925;-74
2022/02/15 13:16:40;;;;;;;;;;;;;;;7.81;62.63;97629.44;5046632;28;20355;-74
2022/02/15 13:19:09;;;;;;;;;;;;;;;7.66;63.78;97637.84;5046275;28;19995;-75
2022/02/15 13:21:42;;;;;;;;;;;;;;;7.54;64.93;97629.44;5046221;28;19940;-74
2022/02/15 13:24:15;;;;;;;;;;;;;;;7.24;66.68;97646.97;5047067;28;21799;-74
2022/02/15 13:26:44;;;;;;;;;;;;;;;7.13;66.87;97634.72;5031518;28;20325;-74
2022/02/15 13:29:21;;;;;;;;;;;;;;;6.86;68.85;97646.22;5047867;28;19947;-77
2022/02/15 13:31:51;;;;;;;;;;;;;;;6.73;69.13;97643.19;5050038;28;19925;-71
2022/02/15 13:34:26;;;;;;;;;;;;;;;6.67;70.46;97651.66;5055636;28;19932;-71
2022/02/15 13:36:58;;;;;;;;;;;;;;;6.55;70.67;97652.06;5048652;28;20421;-72
2022/02/15 13:39:25;;;;;;;;;;;;;;;6.60;71.28;97654.69;5046841;28;19929;-71